Time;durP1;ratioP1;P1;durP2;ratioP2;P2;SDS_P1;SDS_P2;PMS_P1;PMS_P2;Temp;Humidity;BMP_temperature;BMP_pressure;BME280_temperature;BME280_humidity;BME280_pressure;Samples;Min_cycle;Max_cycle;Signal;HPM_P1;HPM_P2
2021/05/30 00:00:11;;;;;;;;;8.00;8.00;;;;;19.53;36.64;101670.72;5054300;28;45879;-83
2021/05/30 00:02:37;;;;;;;;;7.25;6.75;;;;;19.46;36.82;101667.78;5054237;28;45480;-82
2021/05/30 00:05:04;;;;;;;;;9.00;7.00;;;;;19.44;36.99;101677.69;5054087;28;45428;-81
2021/05/30 00:07:29;;;;;;;;;10.00;9.25;;;;;19.36;37.43;101674.06;5053880;28;45621;-85
2021/05/30 00:09:55;;;;;;;;;8.75;8.00;;;;;19.31;37.22;101674.47;5054044;28;45485;-84
2021/05/30 00:12:21;;;;;;;;;8.00;8.00;;;;;19.21;37.26;101669.16;5069699;28;48392;-82
2021/05/30 00:14:47;;;;;;;;;10.00;10.00;;;;;19.20;37.56;101678.09;5053682;28;45463;-83
2021/05/30 00:20:34;;;;;;;;;9.25;9.00;;;;;19.08;37.80;101678.38;5053975;28;45554;-82
2021/05/30 00:23:00;;;;;;;;;8.50;8.50;;;;;19.06;37.67;101677.66;5053871;28;45554;-84
2021/05/30 00:25:25;;;;;;;;;8.25;8.25;;;;;19.01;38.34;101680.72;5054566;28;45484;-84
2021/05/30 00:27:51;;;;;;;;;9.00;8.50;;;;;19.01;38.35;101671.91;5054808;28;45576;-83
2021/05/30 00:30:16;;;;;;;;;8.75;8.50;;;;;18.99;38.71;101681.84;5053771;28;46957;-81
2021/05/30 00:32:42;;;;;;;;;11.50;11.25;;;;;18.92;38.14;101678.06;5053230;28;46030;-80
2021/05/30 00:35:08;;;;;;;;;11.00;10.00;;;;;18.90;38.23;101667.56;5054029;28;45789;-81
2021/05/30 00:37:33;;;;;;;;;10.00;9.75;;;;;18.84;38.45;101678.72;5054511;28;45761;-80
2021/05/30 00:39:59;;;;;;;;;11.50;10.00;;;;;18.79;38.66;101671.16;5054539;28;46387;-81
2021/05/30 00:42:24;;;;;;;;;11.00;11.00;;;;;18.76;38.73;101674.09;5054110;28;46437;-80
2021/05/30 00:44:49;;;;;;;;;10.50;10.50;;;;;18.71;39.41;101679.00;5053883;28;45976;-81
2021/05/30 00:50:37;;;;;;;;;9.75;9.50;;;;;18.60;39.38;101679.09;5054011;28;45852;-80
2021/05/30 00:53:03;;;;;;;;;10.00;10.00;;;;;18.53;39.69;101666.44;5053980;28;45770;-83
2021/05/30 00:55:29;;;;;;;;;13.25;11.25;;;;;18.50;39.63;101672.03;5054106;28;45610;-83
2021/05/30 00:57:54;;;;;;;;;11.75;11.25;;;;;18.46;39.72;101666.16;5053984;28;45578;-82
2021/05/30 01:06:27;;;;;;;;;10.50;10.50;;;;;18.35;40.25;101667.06;5053708;28;45549;-81
2021/05/30 01:08:53;;;;;;;;;12.00;12.00;;;;;18.31;40.43;101670.97;5053477;28;45590;-81
2021/05/30 01:11:22;;;;;;;;;11.00;11.00;;;;;18.22;39.94;101653.19;5054151;28;46649;-84
2021/05/30 01:13:52;;;;;;;;;11.50;10.75;;;;;18.24;40.55;101663.69;5053982;28;46131;-84
2021/05/30 01:16:19;;;;;;;;;11.75;11.75;;;;;18.20;40.49;101662.25;5054848;28;45748;-83
2021/05/30 01:18:47;;;;;;;;;12.75;11.25;;;;;18.13;40.80;101655.81;5054670;28;45744;-81
2021/05/30 01:21:13;;;;;;;;;12.00;11.25;;;;;18.12;41.05;101656.78;5058326;28;45946;-82
2021/05/30 01:23:38;;;;;;;;;11.00;11.00;;;;;18.11;41.11;101663.06;5057063;28;45600;-84
2021/05/30 01:26:04;;;;;;;;;12.00;10.25;;;;;18.09;40.78;101659.69;5055536;28;45569;-83
2021/05/30 01:28:30;;;;;;;;;10.25;10.25;;;;;18.07;41.22;101651.88;5057188;28;45598;-82
2021/05/30 01:30:55;;;;;;;;;12.50;11.50;;;;;18.06;41.69;101658.16;5056530;28;46403;-82
2021/05/30 01:33:21;;;;;;;;;14.00;13.25;;;;;18.04;41.54;101660.09;5056765;28;45879;-86
2021/05/30 01:35:47;;;;;;;;;13.25;13.00;;;;;18.03;41.59;101658.41;5056696;28;45793;-82
2021/05/30 01:38:13;;;;;;;;;14.00;13.50;;;;;18.01;41.51;101658.56;5057156;28;45674;-83
2021/05/30 01:40:40;;;;;;;;;11.75;11.00;;;;;17.98;41.57;101655.28;5057503;28;46225;-83
2021/05/30 01:43:05;;;;;;;;;11.25;11.25;;;;;17.96;41.67;101654.59;5057272;28;46207;-84
2021/05/30 01:45:33;;;;;;;;;13.25;12.75;;;;;17.93;42.02;101649.53;5057725;28;45963;-83
2021/05/30 01:51:21;;;;;;;;;13.75;13.00;;;;;17.85;42.04;101644.91;5058715;28;46035;-84
2021/05/30 01:53:56;;;;;;;;;12.25;12.00;;;;;17.81;42.20;101651.47;5057938;28;45733;-83
2021/05/30 01:59:06;;;;;;;;;10.00;10.00;;;;;17.78;42.09;101649.06;5056918;28;45622;-85
2021/05/30 02:01:32;;;;;;;;;14.00;13.50;;;;;17.76;42.47;101650.97;5056853;28;45649;-83
2021/05/30 02:04:02;;;;;;;;;11.00;11.00;;;;;17.75;42.27;101654.63;5056571;28;45986;-81
2021/05/30 02:06:30;;;;;;;;;16.25;15.00;;;;;17.73;42.53;101655.72;5056606;28;45667;-85
2021/05/30 02:08:56;;;;;;;;;13.00;12.50;;;;;17.68;42.94;101655.25;5057222;28;45593;-80
2021/05/30 02:11:23;;;;;;;;;13.25;13.00;;;;;17.68;42.86;101658.75;5053741;28;45670;-81
2021/05/30 02:13:48;;;;;;;;;14.75;14.00;;;;;17.66;42.97;101657.19;5054805;28;46915;-81
2021/05/30 02:16:15;;;;;;;;;13.00;12.25;;;;;17.65;42.80;101661.66;5055851;28;45501;-81
2021/05/30 02:18:41;;;;;;;;;11.25;11.00;;;;;17.63;43.14;101663.59;5056096;28;45600;-83
2021/05/30 02:21:06;;;;;;;;;13.75;13.75;;;;;17.59;42.90;101655.06;5056350;28;46274;-83
2021/05/30 02:23:32;;;;;;;;;12.50;12.50;;;;;17.58;42.94;101655.16;5055969;28;45640;-82
2021/05/30 02:25:57;;;;;;;;;12.00;11.25;;;;;17.64;43.07;101667.09;5056062;28;45781;-84
2021/05/30 02:28:22;;;;;;;;;13.75;13.50;;;;;17.61;43.33;101661.06;5058265;28;45620;-85
2021/05/30 02:30:48;;;;;;;;;13.75;13.00;;;;;17.63;43.29;101660.09;5058391;28;45550;-85
2021/05/30 02:36:35;;;;;;;;;13.00;12.00;;;;;17.61;43.55;101661.06;5055762;28;45586;-82
2021/05/30 02:39:01;;;;;;;;;12.75;12.50;;;;;17.61;43.62;101665.53;5055872;27;45627;-82
2021/05/30 02:41:26;;;;;;;;;13.25;12.75;;;;;17.58;43.45;101658.66;5056491;28;46439;-82
2021/05/30 02:43:52;;;;;;;;;13.75;13.75;;;;;17.59;43.36;101664.81;5056425;28;45919;-84
2021/05/30 02:46:17;;;;;;;;;17.25;14.00;;;;;17.56;43.78;101663.22;5055931;28;45619;-83
2021/05/30 02:52:05;;;;;;;;;13.50;13.00;;;;;17.50;43.87;101662.91;5055888;28;45688;-84
2021/05/30 02:54:32;;;;;;;;;13.25;13.25;;;;;17.47;44.06;101660.50;5055984;28;45592;-83
2021/05/30 02:56:57;;;;;;;;;14.00;13.00;;;;;17.45;44.14;101665.09;5055316;28;45760;-82
2021/05/30 02:59:23;;;;;;;;;13.75;12.75;;;;;17.42;44.00;101662.72;5055598;28;45802;-81
2021/05/30 03:01:48;;;;;;;;;13.75;12.00;;;;;17.36;44.10;101664.06;5055344;28;45602;-79
2021/05/30 03:04:14;;;;;;;;;14.50;13.00;;;;;17.30;43.97;101656.63;5055372;28;45692;-81
2021/05/30 03:06:39;;;;;;;;;13.00;12.00;;;;;17.28;44.25;101661.19;5055448;28;45572;-80
2021/05/30 03:09:05;;;;;;;;;12.50;12.50;;;;;17.25;44.86;101658.81;5055755;28;45586;-84
2021/05/30 03:11:30;;;;;;;;;13.00;12.75;;;;;17.25;44.37;101666.75;5055712;28;46174;-84
2021/05/30 03:13:57;;;;;;;;;13.75;12.75;;;;;17.25;44.44;101668.56;5054817;28;45736;-81
2021/05/30 03:16:23;;;;;;;;;13.50;13.00;;;;;17.21;44.59;101670.63;5055069;28;45773;-83
2021/05/30 03:22:11;;;;;;;;;13.25;13.00;;;;;17.13;44.67;101676.53;5054972;28;45645;-84
2021/05/30 03:24:37;;;;;;;;;15.50;15.25;;;;;17.09;45.03;101666.31;5055656;28;46550;-84
2021/05/30 03:27:02;;;;;;;;;15.75;14.75;;;;;17.06;44.80;101672.69;5055735;28;45512;-84
2021/05/30 03:29:28;;;;;;;;;15.50;14.50;;;;;17.05;45.00;101673.69;5054804;28;45615;-84
2021/05/30 03:31:53;;;;;;;;;15.75;14.00;;;;;17.01;44.89;101676.69;5053956;28;45532;-85
2021/05/30 03:37:40;;;;;;;;;14.50;13.25;;;;;16.94;45.38;101680.81;5054603;28;45664;-85
2021/05/30 03:40:18;;;;;;;;;15.00;14.75;;;;;16.92;45.26;101677.44;5055148;28;45755;-85
2021/05/30 03:42:48;;;;;;;;;13.50;13.50;;;;;16.88;45.28;101676.00;5054506;28;45915;-80
2021/05/30 03:45:14;;;;;;;;;15.25;14.00;;;;;16.86;45.23;101672.63;5055431;28;46074;-81
2021/05/30 03:47:39;;;;;;;;;12.50;12.25;;;;;16.87;45.40;101682.25;5071248;28;45631;-83
2021/05/30 03:50:06;;;;;;;;;15.00;14.00;;;;;16.83;45.50;101675.53;5056404;28;45522;-84
2021/05/30 03:52:31;;;;;;;;;14.75;13.50;;;;;16.83;45.53;101679.03;5054578;28;46695;-82
2021/05/30 03:54:57;;;;;;;;;14.75;14.00;;;;;16.84;45.55;101678.06;5055117;28;45699;-81
2021/05/30 03:57:22;;;;;;;;;14.75;14.25;;;;;16.82;45.85;101674.69;5056502;28;45659;-84
2021/05/30 03:59:48;;;;;;;;;13.50;13.25;;;;;16.82;45.78;101672.03;5057523;28;45572;-84
2021/05/30 04:02:13;;;;;;;;;14.75;14.25;;;;;16.81;45.86;101674.81;5054687;28;46511;-84
2021/05/30 04:08:00;;;;;;;;;14.00;13.50;;;;;16.79;45.69;101680.22;5055273;28;45710;-86
2021/05/30 04:10:26;;;;;;;;;17.25;15.75;;;;;16.78;45.88;101682.03;5057046;28;45509;-82
2021/05/30 04:12:51;;;;;;;;;15.00;15.00;;;;;16.78;45.80;101682.03;5055293;28;46597;-85
2021/05/30 04:15:17;;;;;;;;;18.25;15.75;;;;;16.75;46.07;101670.84;5053940;28;46450;-84
2021/05/30 04:17:44;;;;;;;;;15.25;14.75;;;;;16.73;45.92;101663.00;5069077;28;45706;-83
2021/05/30 04:20:13;;;;;;;;;16.50;14.50;;;;;16.78;46.09;101679.41;5054888;28;45588;-85
2021/05/30 04:22:40;;;;;;;;;14.50;14.00;;;;;16.79;46.16;101683.69;5056887;28;45704;-82
2021/05/30 04:25:07;;;;;;;;;17.25;16.75;;;;;16.81;46.14;101678.28;5058063;27;46263;-84
2021/05/30 04:27:35;;;;;;;;;17.25;16.25;;;;;16.81;46.24;101685.38;5054773;28;45576;-82
2021/05/30 04:30:00;;;;;;;;;16.50;15.00;;;;;16.77;46.37;101677.72;5054395;28;45644;-81
2021/05/30 04:32:26;;;;;;;;;17.25;16.50;;;;;16.79;46.54;101683.69;5054770;28;45623;-81
2021/05/30 04:38:13;;;;;;;;;15.50;15.00;;;;;16.67;47.05;101676.75;5055251;28;45785;-85
2021/05/30 04:40:38;;;;;;;;;19.50;17.25;;;;;16.65;46.79;101678.69;5056129;28;45654;-83
2021/05/30 04:43:04;;;;;;;;;16.50;15.25;;;;;16.60;47.20;101667.63;5053527;28;47682;-86
2021/05/30 04:45:29;;;;;;;;;18.50;16.00;;;;;16.58;46.94;101679.25;5054181;28;45622;-82
2021/05/30 04:47:55;;;;;;;;;17.00;15.25;;;;;16.55;47.28;101677.69;5053824;28;45539;-83
2021/05/30 04:50:20;;;;;;;;;19.50;18.00;;;;;16.51;47.12;101675.41;5069331;28;45565;-83
2021/05/30 04:52:46;;;;;;;;;20.25;19.00;;;;;16.49;47.29;101685.25;5054075;28;46765;-83
2021/05/30 04:55:12;;;;;;;;;18.75;16.75;;;;;16.46;47.39;101680.22;5059474;28;45559;-84
2021/05/30 04:57:41;;;;;;;;;20.00;17.75;;;;;16.44;47.89;101679.50;5059149;28;45698;-85
2021/05/30 05:00:09;;;;;;;;;20.50;18.25;;;;;16.41;47.63;101683.22;5058568;28;45708;-86
2021/05/30 05:02:34;;;;;;;;;20.25;18.75;;;;;16.32;47.62;101668.91;5057879;28;46679;-83
2021/05/30 05:08:22;;;;;;;;;21.75;19.50;;;;;16.31;48.23;101695.47;5057063;28;45721;-83
2021/05/30 05:10:49;;;;;;;;;21.00;18.25;;;;;16.28;48.39;101686.00;5056019;28;45530;-83
2021/05/30 05:13:15;;;;;;;;;20.75;18.25;;;;;16.23;48.24;101684.66;5057276;28;46481;-83
2021/05/30 05:15:44;;;;;;;;;17.50;17.25;;;;;16.26;48.08;101684.41;5056588;28;45940;-82
2021/05/30 05:18:11;;;;;;;;;17.25;15.50;;;;;16.29;48.05;101692.97;5056995;28;45543;-82
2021/05/30 05:20:36;;;;;;;;;17.00;17.00;;;;;16.29;48.11;101681.53;5057858;28;45599;-82
2021/05/30 05:23:01;;;;;;;;;21.50;19.50;;;;;16.29;47.91;101684.19;5057230;28;45668;-83
2021/05/30 05:25:27;;;;;;;;;22.75;20.25;;;;;16.31;48.33;101685.75;5074048;28;48107;-83
2021/05/30 05:27:52;;;;;;;;;21.75;20.00;;;;;16.32;48.37;101679.50;5062830;28;45562;-84
2021/05/30 05:30:19;;;;;;;;;20.75;19.00;;;;;16.33;48.29;101683.81;5061058;28;45456;-80
2021/05/30 05:32:44;;;;;;;;;22.25;19.50;;;;;16.34;48.64;101684.66;5057606;28;46787;-82
2021/05/30 05:38:31;;;;;;;;;18.00;18.00;;;;;16.38;48.23;101686.09;5057777;28;45717;-85
2021/05/30 05:40:57;;;;;;;;;17.50;16.25;;;;;16.40;48.43;101678.91;5058067;28;45576;-85
2021/05/30 05:43:22;;;;;;;;;20.75;19.25;;;;;16.41;48.55;101685.03;5057850;28;46691;-88
2021/05/30 05:45:48;;;;;;;;;19.75;17.50;;;;;16.38;48.70;101678.19;5056991;28;45565;-87
2021/05/30 05:48:15;;;;;;;;;21.25;19.75;;;;;16.43;48.42;101683.09;5057635;28;45914;-84
2021/05/30 05:54:02;;;;;;;;;20.00;18.00;;;;;16.43;48.36;101683.94;5057846;28;45459;-84
2021/05/30 05:56:28;;;;;;;;;19.00;17.75;;;;;16.48;48.50;101686.22;5059270;28;45617;-80
2021/05/30 05:58:53;;;;;;;;;23.00;19.00;;;;;16.51;48.23;101684.19;5057210;28;45734;-81
2021/05/30 06:01:18;;;;;;;;;19.50;19.00;;;;;16.54;48.64;101683.09;5060378;28;45524;-85
2021/05/30 06:03:44;;;;;;;;;19.00;17.25;;;;;16.54;48.68;101673.34;5059331;28;45660;-84
2021/05/30 06:06:09;;;;;;;;;20.25;19.75;;;;;16.58;48.71;101680.09;5056747;28;45970;-84
2021/05/30 06:08:35;;;;;;;;;19.75;18.75;;;;;16.60;48.51;101680.84;5057462;28;45537;-84
2021/05/30 06:11:00;;;;;;;;;18.00;16.75;;;;;16.58;48.70;101677.44;5058951;28;45495;-86
2021/05/30 06:13:25;;;;;;;;;22.00;20.00;;;;;16.62;48.39;101671.00;5058563;28;46291;-81
2021/05/30 06:15:51;;;;;;;;;20.75;18.25;;;;;16.68;48.60;101678.41;5059106;28;45626;-85
2021/05/30 06:18:17;;;;;;;;;16.00;14.50;;;;;16.66;48.66;101677.72;5057516;28;45557;-82
2021/05/30 06:24:05;;;;;;;;;17.00;17.00;;;;;16.77;48.49;101687.44;5059008;28;46023;-84
2021/05/30 06:26:31;;;;;;;;;19.50;18.25;;;;;16.77;48.56;101680.34;5059743;28;45707;-86
2021/05/30 06:28:56;;;;;;;;;19.00;17.50;;;;;16.82;48.64;101679.13;5058811;28;46064;-88
2021/05/30 06:31:23;;;;;;;;;21.25;18.00;;;;;16.87;48.54;101682.25;5059376;28;45481;-85
2021/05/30 06:40:32;;;;;;;;;21.00;20.25;;;;;16.94;48.59;101686.94;5056725;28;45916;-84
2021/05/30 06:42:58;;;;;;;;;23.00;19.50;;;;;16.98;48.31;101690.19;5056641;28;45506;-85
2021/05/30 06:45:23;;;;;;;;;19.00;18.25;;;;;17.00;48.48;101689.09;5057975;28;45685;-84
2021/05/30 06:47:49;;;;;;;;;19.75;17.75;;;;;17.03;47.92;101688.00;5058620;28;45918;-88
2021/05/30 06:50:14;;;;;;;;;21.75;19.00;;;;;17.07;48.47;101678.84;5057436;28;45607;-86
2021/05/30 06:52:40;;;;;;;;;22.75;19.50;;;;;17.09;48.50;101684.84;5056499;28;45689;-83
2021/05/30 06:55:06;;;;;;;;;22.25;20.25;;;;;17.09;48.62;101687.50;5055154;28;47277;-83
2021/05/30 06:57:32;;;;;;;;;22.50;20.00;;;;;17.13;48.54;101687.13;5057802;28;46420;-85
2021/05/30 06:59:57;;;;;;;;;19.50;18.75;;;;;17.16;48.51;101689.53;5057992;28;45719;-86
2021/05/30 07:02:23;;;;;;;;;21.75;20.75;;;;;17.19;48.48;101680.50;5056877;28;45585;-85
2021/05/30 07:04:48;;;;;;;;;22.00;20.00;;;;;17.25;48.20;101685.28;5056064;28;46371;-81
2021/05/30 07:07:13;;;;;;;;;21.25;20.25;;;;;17.22;48.26;101684.72;5057328;28;45907;-82
2021/05/30 07:09:39;;;;;;;;;23.00;20.75;;;;;17.26;48.36;101694.94;5056855;28;45577;-83
2021/05/30 07:12:05;;;;;;;;;21.75;20.00;;;;;17.24;48.67;101686.25;5057100;28;45586;-84
2021/05/30 07:14:31;;;;;;;;;16.00;15.00;;;;;17.27;48.42;101690.47;5055761;28;46527;-82
2021/05/30 07:16:57;;;;;;;;;19.00;18.00;;;;;17.32;48.08;101701.53;5055999;28;45760;-82
2021/05/30 07:19:23;;;;;;;;;20.50;18.00;;;;;17.37;48.34;101692.25;5057827;28;45725;-81
2021/05/30 07:21:49;;;;;;;;;18.00;14.50;;;;;17.40;47.80;101688.47;5059329;28;45700;-84
2021/05/30 07:24:14;;;;;;;;;17.25;16.25;;;;;17.48;48.51;101694.84;5056515;28;45666;-80
2021/05/30 07:26:41;;;;;;;;;20.75;18.25;;;;;17.50;48.08;101690.25;5054013;28;46306;-82
2021/05/30 07:29:07;;;;;;;;;23.75;21.75;;;;;17.56;48.00;101699.50;5055849;28;45511;-81
2021/05/30 07:31:32;;;;;;;;;21.00;20.00;;;;;17.56;48.44;101689.75;5057000;28;45895;-79
2021/05/30 07:33:58;;;;;;;;;17.00;16.00;;;;;17.57;48.19;101694.06;5057427;28;46531;-83
2021/05/30 07:39:45;;;;;;;;;18.25;16.25;;;;;17.61;48.24;101671.66;5056021;28;45834;-79
2021/05/30 07:42:10;;;;;;;;;21.25;19.50;;;;;17.68;48.61;101687.06;5057290;28;45559;-82
2021/05/30 07:44:36;;;;;;;;;20.75;19.25;;;;;17.72;48.18;101680.53;5058036;28;45408;-82
2021/05/30 07:47:02;;;;;;;;;20.50;18.00;;;;;17.77;48.23;101675.69;5060248;28;46168;-80
2021/05/30 07:49:28;;;;;;;;;18.75;16.75;;;;;17.78;48.04;101682.66;5058805;28;45696;-83
2021/05/30 07:55:15;;;;;;;;;15.50;15.00;;;;;17.90;48.14;101673.69;5057224;28;45480;-84
2021/05/30 07:57:42;;;;;;;;;16.75;16.00;;;;;17.94;47.92;101665.34;5056986;28;45550;-81
2021/05/30 08:00:13;;;;;;;;;17.00;16.25;;;;;18.01;47.60;101670.97;5056146;28;45742;-85
2021/05/30 08:02:39;;;;;;;;;16.50;15.00;;;;;18.01;47.58;101668.31;5058405;28;45471;-82
2021/05/30 08:05:06;;;;;;;;;15.75;14.00;;;;;18.06;47.11;101663.47;5058115;28;45939;-87
2021/05/30 08:07:32;;;;;;;;;19.00;17.00;;;;;18.09;47.23;101673.78;5058800;28;45897;-82
2021/05/30 08:09:57;;;;;;;;;16.75;16.50;;;;;18.13;47.27;101667.28;5059383;28;45924;-83
2021/05/30 08:12:23;;;;;;;;;15.00;14.75;;;;;18.19;47.33;101673.88;5061412;28;45657;-82
2021/05/30 08:14:48;;;;;;;;;17.00;15.75;;;;;18.22;47.10;101673.59;5060472;28;46588;-78
2021/05/30 08:17:14;;;;;;;;;16.00;15.00;;;;;18.23;46.58;101664.66;5054280;28;45945;-80
2021/05/30 08:19:40;;;;;;;;;18.50;16.75;;;;;18.27;46.93;101672.22;5053162;28;45700;-82
2021/05/30 08:25:27;;;;;;;;;14.75;14.50;;;;;18.36;46.77;101674.06;5051534;28;45544;-75
2021/05/30 08:27:52;;;;;;;;;18.50;16.25;;;;;18.43;46.64;101671.72;5052512;28;46128;-74
2021/05/30 08:30:21;;;;;;;;;16.75;16.50;;;;;18.45;46.43;101669.78;5056043;28;45721;-75
2021/05/30 08:32:48;;;;;;;;;16.00;15.75;;;;;18.49;46.52;101671.19;5056799;28;45761;-74
2021/05/30 08:35:14;;;;;;;;;16.50;15.50;;;;;18.50;46.40;101658.75;5054681;28;47885;-78
2021/05/30 08:37:43;;;;;;;;;14.25;14.25;;;;;18.57;46.33;101666.06;5056536;28;46445;-76
2021/05/30 08:40:10;;;;;;;;;16.75;16.00;;;;;18.60;46.28;101663.16;5056883;28;45726;-76
2021/05/30 08:42:36;;;;;;;;;17.00;15.75;;;;;18.63;45.96;101664.69;5057143;28;45559;-81
2021/05/30 08:45:01;;;;;;;;;17.25;16.00;;;;;18.63;46.11;101644.28;5056234;28;45730;-79
2021/05/30 08:47:28;;;;;;;;;13.25;13.00;;;;;18.71;45.92;101655.09;5056533;28;45996;-78
2021/05/30 08:49:53;;;;;;;;;17.00;16.50;;;;;18.71;46.33;101648.94;5072114;27;45708;-78
2021/05/30 08:55:40;;;;;;;;;12.50;12.00;;;;;18.82;45.93;101644.34;5056036;28;45693;-76
2021/05/30 08:58:06;;;;;;;;;12.00;12.00;;;;;18.88;46.17;101660.72;5056051;28;46119;-77
2021/05/30 09:00:32;;;;;;;;;16.50;15.00;;;;;18.92;45.57;101655.00;5056810;28;45757;-81
2021/05/30 09:03:14;;;;;;;;;15.00;14.50;;;;;18.94;45.78;101650.41;5058105;28;45476;-77
2021/05/30 09:05:41;;;;;;;;;19.25;17.00;;;;;18.98;45.71;101649.13;5057348;28;45781;-79
2021/05/30 09:08:08;;;;;;;;;16.00;15.00;;;;;19.03;45.99;101649.56;5060609;28;46047;-79
2021/05/30 09:10:34;;;;;;;;;14.25;14.25;;;;;19.08;45.60;101647.31;5059467;28;45853;-76
2021/05/30 09:13:03;;;;;;;;;13.75;13.50;;;;;19.10;45.31;101648.03;5057417;28;45940;-76
2021/05/30 09:15:48;;;;;;;;;14.75;13.50;;;;;19.14;45.73;101656.56;5058201;28;45688;-79
2021/05/30 09:18:14;;;;;;;;;15.00;14.75;;;;;19.13;45.20;101647.75;5055803;28;48353;-82
2021/05/30 09:21:00;;;;;;;;;14.25;12.75;;;;;19.19;45.53;101647.19;5056147;28;45663;-77
2021/05/30 09:23:29;;;;;;;;;16.50;15.00;;;;;19.24;45.36;101652.09;5056196;28;45611;-77
2021/05/30 09:26:17;;;;;;;;;14.00;13.00;;;;;19.25;45.10;101643.16;5055512;28;46630;-78
2021/05/30 09:29:09;;;;;;;;;10.25;10.00;;;;;19.27;44.96;101651.81;5055999;28;46111;-78
2021/05/30 09:31:54;;;;;;;;;11.75;11.75;;;;;19.31;44.42;101647.91;5058232;28;45735;-80
2021/05/30 09:34:34;;;;;;;;;12.25;12.25;;;;;19.32;44.27;101638.97;5056215;28;45570;-78
2021/05/30 09:37:00;;;;;;;;;11.75;11.75;;;;;19.37;44.70;101638.53;5057038;28;45719;-83
2021/05/30 09:39:37;;;;;;;;;13.00;13.00;;;;;19.45;44.75;101636.03;5056627;28;46194;-75
2021/05/30 09:42:25;;;;;;;;;13.50;13.00;;;;;19.50;44.25;101636.44;5056161;28;45921;-78
2021/05/30 09:44:58;;;;;;;;;12.50;12.25;;;;;19.55;43.84;101632.38;5053702;28;45619;-78
2021/05/30 09:47:38;;;;;;;;;12.50;12.50;;;;;19.63;44.31;101634.34;5055480;28;45531;-79
2021/05/30 09:50:07;;;;;;;;;15.75;14.50;;;;;19.67;44.00;101639.22;5055459;28;45693;-80
2021/05/30 09:52:47;;;;;;;;;15.00;14.00;;;;;19.73;43.49;101634.31;5055710;27;45511;-79
2021/05/30 09:55:21;;;;;;;;;12.00;12.00;;;;;19.77;43.34;101623.25;5055641;28;45768;-75
2021/05/30 09:58:14;;;;;;;;;10.25;10.25;;;;;19.83;43.36;101630.66;5053860;28;46333;-77
2021/05/30 10:00:44;;;;;;;;;12.75;11.25;;;;;19.89;43.32;101614.13;5056586;28;46264;-77
2021/05/30 10:03:10;;;;;;;;;11.50;11.50;;;;;19.94;43.21;101606.53;5071969;28;45628;-77
2021/05/30 10:08:57;;;;;;;;;14.75;13.00;;;;;20.11;43.51;101608.44;5057018;28;45562;-79
2021/05/30 10:11:23;;;;;;;;;11.50;10.25;;;;;20.15;43.12;101608.13;5055040;28;48551;-80
2021/05/30 10:13:49;;;;;;;;;10.75;10.00;;;;;20.17;42.99;101612.34;5057322;28;45660;-78
2021/05/30 10:16:15;;;;;;;;;11.25;10.50;;;;;20.20;43.13;101604.06;5058106;28;45669;-82
2021/05/30 10:18:45;;;;;;;;;15.00;11.50;;;;;20.23;42.63;101602.94;5055640;28;47816;-81
2021/05/30 10:24:38;;;;;;;;;10.25;8.50;;;;;20.33;42.80;101601.94;5055916;28;45710;-79
2021/05/30 10:27:26;;;;;;;;;9.25;9.25;;;;;20.40;42.52;101603.03;5056145;28;45746;-80
2021/05/30 10:30:07;;;;;;;;;10.50;9.50;;;;;20.45;42.04;101600.75;5055442;28;45636;-80
2021/05/30 10:32:33;;;;;;;;;7.00;6.50;;;;;20.46;41.98;101594.41;5055664;28;45653;-79
2021/05/30 10:35:19;;;;;;;;;7.00;7.00;;;;;20.55;41.44;101598.03;5055965;28;45812;-80
2021/05/30 10:41:13;;;;;;;;;7.50;7.50;;;;;20.71;41.36;101598.22;5056185;28;46224;-82
2021/05/30 10:43:38;;;;;;;;;8.25;8.00;;;;;20.75;41.19;101591.59;5054997;28;46173;-81
2021/05/30 10:46:05;;;;;;;;;8.00;8.00;;;;;20.78;40.56;101595.78;5054811;28;45627;-78
2021/05/30 10:48:31;;;;;;;;;7.75;7.00;;;;;20.83;40.51;101594.34;5055146;28;45663;-81
2021/05/30 10:51:10;;;;;;;;;8.25;7.50;;;;;20.87;40.19;101587.72;5054410;28;45613;-82
2021/05/30 10:53:47;;;;;;;;;10.00;9.00;;;;;20.97;40.08;101587.63;5055175;28;46258;-76
2021/05/30 10:56:34;;;;;;;;;8.75;6.75;;;;;21.04;39.90;101587.88;5055143;28;45964;-77
2021/05/30 10:59:03;;;;;;;;;7.25;6.00;;;;;21.08;39.79;101589.22;5055691;27;45495;-82
2021/05/30 11:01:35;;;;;;;;;6.50;6.00;;;;;21.08;39.35;101587.41;5055717;28;46230;-79
2021/05/30 11:04:31;;;;;;;;;8.00;8.00;;;;;21.13;38.80;101582.44;5054671;28;46059;-77
2021/05/30 11:07:06;;;;;;;;;9.50;8.00;;;;;21.18;39.05;101571.34;5056884;28;45574;-78
2021/05/30 11:09:50;;;;;;;;;8.50;7.75;;;;;21.22;38.69;101583.38;5056065;28;45697;-77
2021/05/30 11:12:23;;;;;;;;;7.00;7.00;;;;;21.23;38.58;101577.91;5070562;27;47509;-79
2021/05/30 11:15:07;;;;;;;;;7.00;7.00;;;;;21.26;38.35;101574.94;5055159;28;46156;-81
2021/05/30 11:17:41;;;;;;;;;5.25;4.50;;;;;21.26;38.26;101566.94;5055259;28;45659;-79
2021/05/30 11:20:11;;;;;;;;;7.25;6.00;;;;;21.32;38.03;101558.31;5055355;28;45719;-82
2021/05/30 11:22:48;;;;;;;;;5.75;5.50;;;;;21.35;37.88;101551.84;5053567;28;46717;-78
2021/05/30 11:25:16;;;;;;;;;6.00;6.00;;;;;21.36;37.59;101558.84;5056176;28;45643;-77
2021/05/30 11:27:53;;;;;;;;;6.25;6.25;;;;;21.42;37.53;101552.06;5056796;28;45711;-80
2021/05/30 11:30:38;;;;;;;;;7.00;6.00;;;;;21.44;37.53;101536.72;5056571;28;45703;-76
2021/05/30 11:33:05;;;;;;;;;6.25;5.25;;;;;21.46;37.09;101548.91;5055483;28;45575;-78
2021/05/30 11:35:31;;;;;;;;;6.00;6.00;;;;;21.48;37.25;101541.59;5054135;28;46174;-77
2021/05/30 11:37:57;;;;;;;;;6.25;5.25;;;;;21.57;36.58;101539.81;5054338;28;45539;-77
2021/05/30 11:40:23;;;;;;;;;6.00;6.00;;;;;21.66;36.70;101541.53;5054185;28;45676;-76
2021/05/30 11:42:50;;;;;;;;;7.00;6.00;;;;;21.67;36.57;101537.88;5053881;28;45574;-75
2021/05/30 11:45:35;;;;;;;;;7.50;6.50;;;;;21.74;36.57;101537.09;5053249;28;46008;-78
2021/05/30 11:48:21;;;;;;;;;6.00;5.00;;;;;21.75;35.86;101527.25;5053973;28;45916;-77
2021/05/30 11:54:08;;;;;;;;;4.00;3.75;;;;;21.83;35.29;101537.13;5054507;28;45798;-78
2021/05/30 11:56:44;;;;;;;;;4.00;4.00;;;;;21.84;35.58;101526.28;5054767;28;45704;-81
2021/05/30 11:59:11;;;;;;;;;4.00;4.00;;;;;21.87;34.94;101517.13;5052904;28;45704;-79
2021/05/30 12:01:44;;;;;;;;;5.00;4.75;;;;;21.89;34.70;101523.97;5054567;28;45646;-76
2021/05/30 12:04:22;;;;;;;;;6.75;5.75;;;;;21.95;34.75;101533.22;5052697;28;45705;-77
2021/05/30 12:10:17;;;;;;;;;4.25;4.00;;;;;22.02;34.17;101516.41;5052951;28;45891;-75
2021/05/30 12:12:47;;;;;;;;;4.00;3.25;;;;;22.06;34.17;101530.25;5051887;28;46007;-75
2021/05/30 12:15:18;;;;;;;;;4.00;4.00;;;;;22.09;34.20;101532.59;5053098;28;45682;-77
2021/05/30 12:18:03;;;;;;;;;5.00;5.00;;;;;22.13;34.11;101523.28;5053326;28;46178;-78
2021/05/30 12:20:36;;;;;;;;;6.50;5.00;;;;;22.17;34.19;101527.31;5054049;28;45854;-78
2021/05/30 12:26:24;;;;;;;;;4.75;4.50;;;;;22.17;33.88;101511.28;5055207;28;46100;-78
2021/05/30 12:28:49;;;;;;;;;7.00;6.00;;;;;22.21;34.49;101515.28;5054769;28;45593;-80
2021/05/30 12:31:17;;;;;;;;;4.75;4.75;;;;;22.26;33.93;101502.28;5055580;28;45590;-85
2021/05/30 12:34:02;;;;;;;;;6.25;5.00;;;;;22.31;34.23;101507.13;5058136;28;45495;-77
2021/05/30 12:36:33;;;;;;;;;4.25;4.25;;;;;22.33;34.01;101513.16;5056186;28;46573;-84
2021/05/30 12:39:22;;;;;;;;;4.00;4.00;;;;;22.35;33.93;101511.97;5053892;28;45548;-84
2021/05/30 12:41:58;;;;;;;;;5.00;4.00;;;;;22.40;34.26;101504.31;5053480;28;45649;-79
2021/05/30 12:44:32;;;;;;;;;5.75;5.50;;;;;22.43;34.02;101501.31;5054079;28;45720;-81
2021/05/30 12:47:01;;;;;;;;;4.50;4.50;;;;;22.48;33.81;101495.50;5056110;28;45642;-77
2021/05/30 12:49:27;;;;;;;;;4.50;4.25;;;;;22.49;33.68;101492.66;5055306;28;46067;-83